This is the latest recevied weather packets stored in our database for station/object WE8L. If no packets are shown the sender has not sent any weather packets the latest 10 day(s).
| Time | Temp. | Humidity | Pressure | Rain* | Wind** | Luminosity | Snow |
|---|---|---|---|---|---|---|---|
| 1777669667 | 11.67° C | 58% | 1017.6 hPa | 0 mm | - | 70 W/m² | - |
| 1777669364 | 11.67° C | 58% | 1017.6 hPa | 0 mm | - | 77 W/m² | - |
| 1777669060 | 11.67° C | 57% | 1017.7 hPa | 0 mm | - | 80 W/m² | - |
| 1777668757 | 12.22° C | 60% | 1017.6 hPa | 0 mm | - | 103 W/m² | - |
| 1777668454 | 11.67° C | 60% | 1017.8 hPa | 0 mm | - | 87 W/m² | - |
| 1777668151 | 12.22° C | 58% | 1017.8 hPa | 0 mm | - | 84 W/m² | - |
| 1777667847 | 12.22° C | 59% | 1017.8 hPa | 0 mm | - | 120 W/m² | - |
| 1777667545 | 12.22° C | 59% | 1017.8 hPa | 0 mm | - | 113 W/m² | - |
| 1777667242 | 11.67° C | 58% | 1017.7 hPa | 0 mm | - | 105 W/m² | - |
| 1777666939 | 11.67° C | 58% | 1017.5 hPa | 0 mm | - | 94 W/m² | - |
| 1777666635 | 12.22° C | 59% | 1017.7 hPa | 0 mm | - | 62 W/m² | - |
| 1777666332 | 12.22° C | 62% | 1017.4 hPa | 0 mm | - | 68 W/m² | - |
| 1777666029 | 11.67° C | 60% | 1017.4 hPa | 0 mm | - | 93 W/m² | - |
| 1777665726 | 12.22° C | 56% | 1017.5 hPa | 0 mm | - | 73 W/m² | - |
| 1777665423 | 11.67° C | 59% | 1017.6 hPa | 0 mm | - | 102 W/m² | - |
| 1777665119 | 11.67° C | 58% | 1017.7 hPa | 0 mm | - | 92 W/m² | - |
| 1777664815 | 12.22° C | 57% | 1017.4 hPa | 0 mm | - | 89 W/m² | - |
| 1777664510 | 12.78° C | 58% | 1017.5 hPa | 0 mm | - | 91 W/m² | - |
| 1777664208 | 12.78° C | 57% | 1017.6 hPa | 0 mm | - | 148 W/m² | - |
| 1777663907 | 12.78° C | 60% | 1017.4 hPa | 0 mm | - | 125 W/m² | - |
| 1777663603 | 11.11° C | 62% | 1017.6 hPa | 0 mm | - | 311 W/m² | - |
| 1777663301 | 11.67° C | 61% | 1017.7 hPa | 0 mm | - | 98 W/m² | - |
| 1777662998 | 11.67° C | 61% | 1017.6 hPa | 0 mm | - | 65 W/m² | - |
| 1777662695 | 12.22° C | 61% | 1017.6 hPa | 0 mm | - | 109 W/m² | - |
| 1777662391 | 12.22° C | 62% | 1017.7 hPa | 0 mm | - | 94 W/m² | - |
* Rain latest hour (hover to see other rain measurements)
** Current wind speed in m/s (hover to see current wind gust speed)